Surface observations / UK / EGOM

Quebec | Canada | USA | France | UK | Europe | Elsewhere

Display: Info & Location for EGOM | Help decoding METAR


Raw surface observations for station EGOM
EGOM 280050Z AUTO 20017KT 9999 -RA FEW007/// BKN015/// 04/03 Q1004=
EGOM 272350Z AUTO 22021KT 3700 SHRA FEW010/// BKN019/// 03/02 Q1005=
EGOM 272250Z AUTO 21018KT 9999 -SHRA BKN010/// BKN017/// 04/02 Q1006=
EGOM 272150Z AUTO 21020KT 9999 BKN012/// BKN023/// 03/01 Q1007=
EGOM 272050Z AUTO 21019KT 9999 BKN023/// 04/01 Q1008=
EGOM 271950Z AUTO 21016KT 9999 BKN027/// BKN110/// 03/M00 Q1009=
EGOM 271850Z AUTO 22013KT 9999 OVC100/// 03/M01 Q1010=
EGOM 271750Z AUTO 22012KT 9999 FEW046/// BKN110/// 03/00 Q1010=
EGOM 271650Z AUTO 23019KT 9999 SCT019/// BKN140/// 04/01 Q1011=
EGOM 271550Z AUTO 24017G27KT 9999 FEW019/// BKN140/// 04/01 Q1012=
EGOM 271450Z AUTO 24018KT 9999 SCT016/// BKN023/// 04/01 Q1011=
EGOM 271350Z AUTO 25022KT //// // FEW019/// 04/01 Q1012=
EGOM 271250Z AUTO 26023KT 9999 BKN010/// SCT018/// 04/02 Q1012=
EGOM 271150Z AUTO 26023KT 9999 BKN009/// BKN016/// 03/01 Q1013=
EGOM 271050Z AUTO 26018KT 9999 BKN007/// 03/01 Q1012=
EGOM 270950Z 25016KT 9999 BKN008 02/00 Q1013 GRN=
EGOM 270850Z AUTO /////KT 9999 ///////// 01/01 Q1012=
EGOM 270550Z AUTO 25012KT 9999 BKN006/// 01/M00 Q1011=
EGOM 270450Z AUTO 25015KT 9999 BKN011/// 01/M01 Q1011=
EGOM 270350Z AUTO 25017KT 9999 BKN012/// BKN029/// 01/M01 Q1011=
EGOM 270250Z AUTO 26016KT 9999 BKN009/// 01/M01 Q1011=
EGOM 270150Z AUTO 25016KT 9999 BKN016/// 01/M00 Q1011=
EGOM 270050Z AUTO 25014KT 9999 FEW008/// BKN010/// 01/M00 Q1010=